Portia, Arkansas
Current Conditions -  °F | °C
As of 11:55 PM on Wednesday 17 Dec 2014 (Local Time) from KARG Reporting Station
Clear Clear  
Wind Chill: 32°   Ceiling: Unl
Heat Index: 36°   Visibility: 5mi
Dew Point: 32°   Wind: 5mph
Humidity: 87%   Direction: 50°NE
Pressure: 30.28"   Gusts: NA
Location:  36.09°N, 91.07°W
Report Text: KARG 180555Z AUTO 05004KT 5SM CLR 02/00 A3028 RMK AO1 P0010 60021 10030 20020 52007
Loading
Personal Weather Stations






























Interactive Weather Map New forecast layout! Learn more

10-Day Weather Forecast

Advertisements
Track Severe Weather on mobile